Time;durP1;ratioP1;P1;durP2;ratioP2;P2;SDS_P1;SDS_P2;PMS_P1;PMS_P2;Temp;Humidity;BMP_temperature;BMP_pressure;BME280_temperature;BME280_humidity;BME280_pressure;Samples;Min_cycle;Max_cycle;Signal;HPM_P1;HPM_P2
2021/10/28 00:14:05;;;;;;;13.50;12.10;;;;;;;25.87;17.84;95365.63;5014889;28;20060;-55
2021/10/28 00:16:34;;;;;;;17.23;13.70;;;;;;;25.85;17.88;95362.53;5014952;28;20042;-54
2021/10/28 00:19:04;;;;;;;15.50;13.20;;;;;;;25.72;17.80;95368.06;5014519;28;20345;-53
2021/10/28 00:21:37;;;;;;;14.55;13.00;;;;;;;25.99;17.69;95360.84;5014208;28;20428;-55
2021/10/28 00:24:08;;;;;;;15.43;13.68;;;;;;;25.65;18.00;95367.94;5014280;28;20054;-53
2021/10/28 00:26:41;;;;;;;16.52;14.48;;;;;;;25.55;18.13;95375.81;5014943;28;20056;-52
2021/10/28 00:29:11;;;;;;;15.68;14.05;;;;;;;25.52;17.87;95374.63;5013011;28;20054;-53
2021/10/28 00:31:39;;;;;;;16.02;14.43;;;;;;;25.40;18.00;95366.75;5014534;28;20054;-52
2021/10/28 00:34:08;;;;;;;16.13;14.52;;;;;;;25.59;17.99;95369.38;5014675;28;20087;-59
2021/10/28 00:36:36;;;;;;;17.58;15.68;;;;;;;25.45;17.98;95363.78;5014697;28;20360;-55
2021/10/28 00:39:05;;;;;;;17.30;15.18;;;;;;;25.43;18.38;95361.44;5014106;28;20050;-56
2021/10/28 00:41:32;;;;;;;17.23;15.43;;;;;;;25.41;18.37;95363.72;5014351;28;20460;-52
2021/10/28 00:44:01;;;;;;;16.85;15.23;;;;;;;25.47;18.23;95367.63;5014519;28;20449;-56
2021/10/28 00:46:31;;;;;;;17.75;15.90;;;;;;;25.59;18.32;95363.25;5013886;28;20360;-54
2021/10/28 00:49:00;;;;;;;17.40;15.60;;;;;;;25.63;18.10;95358.72;5013979;28;20049;-55
2021/10/28 00:51:28;;;;;;;18.10;16.30;;;;;;;25.40;18.33;95348.78;5013775;28;20770;-52
2021/10/28 00:53:58;;;;;;;18.52;16.40;;;;;;;25.79;18.03;95349.47;5013074;28;20057;-60
2021/10/28 00:56:27;;;;;;;17.85;15.90;;;;;;;25.32;18.22;95349.81;5014519;28;20504;-54
2021/10/28 00:58:54;;;;;;;19.88;16.17;;;;;;;25.61;17.98;95340.34;5013717;28;20052;-53
2021/10/28 01:01:21;;;;;;;18.52;16.42;;;;;;;25.42;18.36;95343.84;5014014;28;20476;-52
2021/10/28 01:03:48;;;;;;;18.05;16.15;;;;;;;25.46;18.11;95343.91;5014069;28;20056;-52
2021/10/28 01:06:15;;;;;;;18.05;16.25;;;;;;;25.59;17.90;95342.59;5014397;28;20050;-51
2021/10/28 01:08:45;;;;;;;19.50;15.93;;;;;;;25.48;18.07;95336.28;5013972;28;20072;-57
2021/10/28 01:11:13;;;;;;;19.25;16.20;;;;;;;25.52;18.33;95337.16;5013683;28;20117;-54
2021/10/28 01:13:42;;;;;;;20.30;16.88;;;;;;;25.34;18.22;95330.72;5014135;28;20049;-55
2021/10/28 01:16:09;;;;;;;18.35;16.45;;;;;;;25.33;18.13;95332.63;5013355;28;20076;-53
2021/10/28 01:18:38;;;;;;;19.90;16.02;;;;;;;25.37;18.01;95330.00;5013833;28;20372;-57
2021/10/28 01:21:08;;;;;;;18.38;15.93;;;;;;;25.30;18.43;95324.53;5013778;28;20054;-52
2021/10/28 01:23:38;;;;;;;17.92;15.93;;;;;;;25.45;18.03;95331.66;5013490;28;20038;-51
2021/10/28 01:26:10;;;;;;;19.67;17.67;;;;;;;25.46;18.06;95335.88;5013945;28;20457;-53
2021/10/28 01:28:57;;;;;;;20.48;18.27;;;;;;;25.34;18.12;95322.69;5013735;28;20050;-55
2021/10/28 01:31:27;;;;;;;19.98;17.98;;;;;;;25.26;17.86;95324.47;5013488;28;20053;-52
2021/10/28 01:33:55;;;;;;;20.75;18.58;;;;;;;25.20;17.99;95326.66;5012968;28;20065;-54
2021/10/28 01:36:23;;;;;;;21.27;18.27;;;;;;;25.21;18.02;95330.09;5013846;28;20061;-52
2021/10/28 01:38:51;;;;;;;21.15;18.95;;;;;;;25.14;18.33;95328.09;5013593;28;20042;-56
2021/10/28 01:41:19;;;;;;;22.60;19.27;;;;;;;25.05;18.26;95319.53;5013166;28;20058;-57
2021/10/28 01:43:46;;;;;;;21.95;19.65;;;;;;;25.09;18.28;95324.94;5013527;28;20117;-56
2021/10/28 01:46:14;;;;;;;22.08;19.75;;;;;;;25.31;17.98;95326.06;4998277;28;20058;-52
2021/10/28 01:48:41;;;;;;;21.88;19.63;;;;;;;25.25;17.77;95322.94;5001928;28;20050;-56
2021/10/28 01:51:09;;;;;;;24.05;20.65;;;;;;;25.36;17.69;95323.09;5012623;28;20070;-59
2021/10/28 01:53:41;;;;;;;23.05;20.65;;;;;;;25.42;17.67;95327.00;5013253;28;20049;-53
2021/10/28 01:56:09;;;;;;;;;;;;;;;25.34;17.88;95320.78;5014081;28;20070;-58
2021/10/28 01:58:36;;;;;;;23.08;20.67;;;;;;;25.33;18.06;95321.13;5013922;28;20268;-58
2021/10/28 02:01:06;;;;;;;23.13;20.70;;;;;;;25.34;18.02;95317.34;5013530;28;20048;-50
2021/10/28 02:03:33;;;;;;;23.92;20.90;;;;;;;25.49;17.86;95314.50;5013952;28;20368;-54
2021/10/28 02:06:02;;;;;;;26.17;23.45;;;;;;;25.42;17.79;95321.66;5013555;28;20041;-53
2021/10/28 02:08:29;;;;;;;27.98;25.00;;;;;;;25.43;17.93;95325.88;5013660;28;20054;-55
2021/10/28 02:10:56;;;;;;;25.40;22.80;;;;;;;25.26;18.12;95323.69;5013592;28;20050;-52
2021/10/28 02:13:27;;;;;;;23.98;21.67;;;;;;;25.27;18.12;95319.91;5012982;28;20057;-53
2021/10/28 02:15:54;;;;;;;22.58;20.30;;;;;;;25.30;18.48;95324.53;5013568;28;20046;-57
2021/10/28 02:18:22;;;;;;;22.80;20.15;;;;;;;25.25;18.41;95312.22;5013408;28;20053;-51
2021/10/28 02:20:49;;;;;;;23.75;21.33;;;;;;;25.40;18.29;95303.28;5013508;28;20357;-58
2021/10/28 02:23:16;;;;;;;24.05;21.65;;;;;;;25.45;17.95;95300.31;5012998;28;20058;-51
2021/10/28 02:25:43;;;;;;;24.42;21.83;;;;;;;25.36;18.12;95307.81;5013317;28;20050;-52
2021/10/28 02:28:10;;;;;;;23.50;21.10;;;;;;;25.23;17.99;95302.97;5016427;28;20065;-54
2021/10/28 02:30:38;;;;;;;24.25;21.67;;;;;;;25.08;18.28;95300.09;5016739;28;20058;-54
2021/10/28 02:33:06;;;;;;;24.58;21.90;;;;;;;25.15;18.15;95297.53;5015761;28;20061;-56
2021/10/28 02:35:33;;;;;;;24.58;22.02;;;;;;;24.88;18.14;95309.25;5016301;28;20049;-55
2021/10/28 02:38:00;;;;;;;24.58;21.92;;;;;;;25.07;18.18;95309.25;5016521;28;20061;-49
2021/10/28 02:40:28;;;;;;;22.75;20.45;;;;;;;25.17;18.12;95305.19;5016631;28;20495;-49
2021/10/28 02:42:55;;;;;;;21.42;19.23;;;;;;;25.12;18.09;95306.25;5016756;28;20050;-57
2021/10/28 02:45:23;;;;;;;21.55;18.92;;;;;;;25.02;17.97;95309.53;5016527;28;20061;-53
2021/10/28 02:47:52;;;;;;;21.50;19.33;;;;;;;25.03;18.22;95310.31;5016574;28;20046;-55
2021/10/28 02:50:20;;;;;;;21.73;18.67;;;;;;;25.10;18.10;95321.91;5015674;28;20061;-56
2021/10/28 02:52:47;;;;;;;21.80;18.65;;;;;;;25.06;18.09;95314.94;5016244;28;20050;-58
2021/10/28 02:55:14;;;;;;;20.52;18.35;;;;;;;25.37;17.81;95322.75;5015784;28;20053;-56
2021/10/28 02:57:42;;;;;;;20.58;18.38;;;;;;;25.17;17.65;95332.72;5016716;28;20056;-57
2021/10/28 03:00:10;;;;;;;24.70;17.58;;;;;;;25.19;17.81;95319.75;5015220;28;20038;-55
2021/10/28 03:02:37;;;;;;;23.33;18.95;;;;;;;25.05;18.08;95324.88;5016462;28;20054;-57
2021/10/28 03:05:05;;;;;;;20.10;17.90;;;;;;;25.10;17.96;95327.25;5016222;28;20050;-52
2021/10/28 03:07:34;;;;;;;21.58;18.00;;;;;;;25.12;17.64;95330.34;5016552;28;20441;-54
2021/10/28 03:10:03;;;;;;;21.80;18.20;;;;;;;25.16;17.72;95325.81;5015815;28;20061;-54
2021/10/28 03:12:31;;;;;;;22.85;18.02;;;;;;;25.21;17.86;95336.22;5016191;28;20046;-52
2021/10/28 03:15:02;;;;;;;21.08;18.00;;;;;;;25.16;17.66;95336.53;5015622;28;20061;-58
2021/10/28 03:17:37;;;;;;;23.48;18.05;;;;;;;25.20;17.67;95345.38;5016168;28;20046;-51
2021/10/28 03:27:45;;;;;;;22.10;16.33;;;;;;;25.20;18.07;95344.59;5016028;28;20084;-54
2021/10/28 03:30:12;;;;;;;17.05;15.25;;;;;;;25.14;18.07;95338.78;5014206;28;20041;-55
2021/10/28 03:32:40;;;;;;;23.00;15.95;;;;;;;25.39;17.83;95352.59;5015884;28;20057;-50
2021/10/28 03:35:11;;;;;;;19.25;15.98;;;;;;;25.36;17.70;95349.84;5014822;28;20057;-59
2021/10/28 03:37:48;;;;;;;21.30;16.80;;;;;;;25.22;18.08;95350.38;5015300;28;20054;-53
2021/10/28 03:40:50;;;;;;;18.17;16.23;;;;;;;25.48;17.60;95353.13;5014996;28;20388;-50
2021/10/28 03:52:42;;;;;;;20.73;15.75;;;;;;;25.15;17.82;95345.69;5014604;28;20322;-51
2021/10/28 04:30:14;;;;;;;21.05;17.35;;;;;;;26.55;16.55;95356.66;4999618;28;20065;-49
2021/10/28 04:32:41;;;;;;;24.27;17.35;;;;;;;27.95;15.37;95365.75;5019696;28;20045;-43
2021/10/28 04:35:09;;;;;;;22.27;17.50;;;;;;;29.08;14.34;95357.53;5007456;28;20278;-48
2021/10/28 04:37:40;;;;;;;20.83;16.63;;;;;;;29.82;13.72;95361.50;5012216;28;20455;-45
2021/10/28 04:40:07;;;;;;;20.15;16.45;;;;;;;30.25;13.59;95367.63;5009202;28;20445;-44
2021/10/28 04:42:35;;;;;;;17.83;15.05;;;;;;;30.51;13.19;95363.72;4999655;28;20053;-42
2021/10/28 04:45:03;;;;;;;20.35;15.23;;;;;;;30.73;13.34;95360.97;5013920;28;20049;-57
2021/10/28 04:47:31;;;;;;;19.95;15.93;;;;;;;31.02;12.96;95365.09;5005369;28;20049;-53
2021/10/28 04:49:58;;;;;;;15.02;12.05;;;;;;;32.15;13.13;95373.59;5003797;28;20065;-49
2021/10/28 04:52:25;;;;;;;17.80;14.65;;;;;;;29.80;13.46;95371.88;4994388;28;20057;-46
2021/10/28 04:54:52;;;;;;;24.00;16.50;;;;;;;28.14;14.33;95368.19;5011484;28;20058;-46
2021/10/28 04:57:19;;;;;;;25.08;17.75;;;;;;;26.87;15.75;95375.81;4995137;28;20069;-46
2021/10/28 04:59:46;;;;;;;24.25;18.38;;;;;;;26.27;16.36;95376.53;5004527;28;20060;-47
2021/10/28 05:02:14;;;;;;;20.70;18.65;;;;;;;25.65;16.64;95375.97;4994644;28;20046;-47
2021/10/28 05:04:41;;;;;;;21.50;19.20;;;;;;;25.87;16.62;95379.03;4999772;28;20054;-53
2021/10/28 05:07:08;;;;;;;28.33;20.73;;;;;;;25.55;17.40;95381.16;4994372;28;20057;-49
2021/10/28 05:09:39;;;;;;;24.90;18.88;;;;;;;26.08;17.13;95382.03;5006803;28;20049;-49
2021/10/28 05:12:07;;;;;;;25.02;19.77;;;;;;;26.10;17.04;95382.44;5013125;28;20050;-47
2021/10/28 05:14:35;;;;;;;23.55;19.55;;;;;;;26.22;16.88;95384.91;5013921;28;20050;-48
2021/10/28 05:17:02;;;;;;;25.27;19.80;;;;;;;26.19;16.96;95395.56;5013967;28;20042;-49
2021/10/28 05:19:31;;;;;;;31.52;20.58;;;;;;;26.17;16.86;95381.75;5013576;28;20054;-49
2021/10/28 05:21:58;;;;;;;25.77;19.48;;;;;;;25.68;17.47;95382.53;5013898;28;20380;-52
2021/10/28 05:24:25;;;;;;;29.92;20.90;;;;;;;25.75;17.32;95388.78;5013268;28;20049;-47
2021/10/28 05:26:52;;;;;;;28.58;21.77;;;;;;;25.84;17.14;95390.47;5013896;28;20475;-46
2021/10/28 05:29:19;;;;;;;30.15;21.50;;;;;;;26.09;16.97;95391.63;5013541;28;20054;-46
2021/10/28 05:31:46;;;;;;;24.75;21.20;;;;;;;26.11;17.04;95397.38;5014060;28;20392;-47
2021/10/28 05:34:13;;;;;;;28.13;21.17;;;;;;;26.20;17.10;95400.56;5013016;28;20057;-47
2021/10/28 05:36:41;;;;;;;29.42;21.77;;;;;;;25.83;17.32;95400.41;5014154;28;20115;-47
2021/10/28 05:39:08;;;;;;;31.00;23.00;;;;;;;25.98;17.33;95412.09;5013611;28;20046;-47
2021/10/28 05:41:35;;;;;;;32.40;23.88;;;;;;;26.34;17.12;95408.09;5014225;28;20058;-46
2021/10/28 05:44:02;;;;;;;32.25;25.27;;;;;;;25.85;17.30;95418.78;5014185;28;20053;-47
2021/10/28 05:46:30;;;;;;;36.35;25.98;;;;;;;25.80;17.51;95423.31;5014263;28;20060;-47
2021/10/28 05:48:57;;;;;;;36.05;26.88;;;;;;;25.86;17.54;95414.97;5012948;28;20053;-47
2021/10/28 05:51:26;;;;;;;31.45;25.05;;;;;;;25.97;17.59;95427.41;5013359;28;20053;-47
2021/10/28 05:53:53;;;;;;;31.50;26.38;;;;;;;25.99;17.62;95424.34;5013142;28;20046;-47
2021/10/28 05:56:20;;;;;;;31.70;26.13;;;;;;;25.95;17.35;95426.97;5013809;28;20066;-46
2021/10/28 05:58:47;;;;;;;36.63;28.70;;;;;;;26.07;17.53;95432.16;5013237;28;20046;-47
2021/10/28 06:01:14;;;;;;;31.40;27.67;;;;;;;25.93;17.73;95431.16;5014112;28;20042;-49
2021/10/28 06:03:42;;;;;;;34.95;28.30;;;;;;;26.32;17.45;95424.50;5017123;28;20053;-49
2021/10/28 06:06:09;;;;;;;33.28;28.02;;;;;;;25.52;18.18;95422.81;5017512;28;20045;-49
2021/10/28 06:08:36;;;;;;;34.15;30.38;;;;;;;26.68;17.47;95425.00;5016784;28;20057;-51
2021/10/28 06:11:03;;;;;;;33.58;28.27;;;;;;;25.50;18.20;95423.16;5016828;28;20373;-51
2021/10/28 06:13:30;;;;;;;34.50;28.90;;;;;;;26.24;17.46;95430.88;5017130;28;20053;-50
2021/10/28 06:15:59;;;;;;;30.88;26.65;;;;;;;25.88;17.57;95428.78;5017606;28;20052;-50
2021/10/28 06:20:54;;;;;;;49.03;44.17;;;;;;;25.12;18.65;95426.66;5006049;28;20042;-50
2021/10/28 06:23:21;;;;;;;42.97;38.63;;;;;;;24.69;19.61;95414.28;5002722;28;20053;-48
2021/10/28 06:25:48;;;;;;;37.88;34.25;;;;;;;25.49;19.12;95418.13;5017339;28;20053;-47
2021/10/28 06:28:15;;;;;;;36.00;29.92;;;;;;;25.37;19.14;95415.63;5017145;28;20049;-47
2021/10/28 06:30:42;;;;;;;30.90;27.73;;;;;;;25.93;18.95;95420.44;5016513;28;20053;-49
2021/10/28 06:33:16;;;;;;;30.20;27.13;;;;;;;26.23;18.32;95418.59;5016548;28;20495;-49
2021/10/28 06:35:43;;;;;;;30.75;27.48;;;;;;;26.64;18.00;95424.97;5016896;28;20049;-48
2021/10/28 06:38:11;;;;;;;29.35;26.35;;;;;;;26.23;18.78;95423.97;5016783;28;20053;-47
2021/10/28 06:40:39;;;;;;;32.13;28.33;;;;;;;26.59;18.58;95419.91;5016460;28;20057;-49
2021/10/28 06:43:06;;;;;;;34.88;28.85;;;;;;;26.82;18.21;95422.53;5009289;28;20445;-50
2021/10/28 06:45:34;;;;;;;31.42;27.23;;;;;;;26.89;18.33;95421.81;5016650;28;20053;-47
2021/10/28 06:48:01;;;;;;;30.17;26.90;;;;;;;27.54;17.98;95416.81;5015523;28;20053;-47
2021/10/28 06:50:34;;;;;;;50.10;45.60;;;;;;;27.45;17.62;95429.75;5016158;28;20056;-48
2021/10/28 06:53:24;;;;;;;73.95;53.60;;;;;;;27.74;17.28;95428.16;5005020;28;20049;-48
2021/10/28 06:55:59;;;;;;;57.05;50.83;;;;;;;27.59;17.57;95423.78;5016313;28;20365;-48
2021/10/28 07:03:57;;;;;;;23.05;20.63;;;;;;;26.65;18.54;95421.16;5016257;28;20049;-47
2021/10/28 07:06:26;;;;;;;32.70;29.77;;;;;;;27.13;17.75;95428.66;5015280;28;20053;-48
2021/10/28 07:08:59;;;;;;;23.00;20.77;;;;;;;26.46;18.20;95425.84;5016289;28;20372;-47
2021/10/28 07:11:32;;;;;;;46.47;41.97;;;;;;;27.69;17.21;95425.03;5016436;28;20054;-47
2021/10/28 07:14:04;;;;;;;44.10;40.10;;;;;;;28.14;16.93;95424.66;5015788;28;20041;-49
2021/10/28 08:28:47;;;;;;;20.08;17.88;;;;;;;28.67;16.77;95401.94;5014725;28;20057;-51
2021/10/28 08:31:16;;;;;;;;;;;;;;;28.93;16.67;95404.41;5014890;28;20054;-52
2021/10/28 08:33:44;;;;;;;19.67;17.50;;;;;;;29.22;16.50;95402.56;5013622;28;19921;-55
2021/10/28 08:36:12;;;;;;;19.70;17.80;;;;;;;29.32;15.93;95403.72;4996796;28;20053;-53
2021/10/28 08:38:41;;;;;;;20.65;18.58;;;;;;;29.26;16.23;95405.25;4994977;28;20053;-52
2021/10/28 08:41:10;;;;;;;20.23;17.98;;;;;;;29.59;15.88;95398.81;4995076;28;20049;-51
2021/10/28 08:43:41;;;;;;;22.83;18.85;;;;;;;29.29;16.35;95397.19;5001307;28;20483;-49
2021/10/28 08:46:09;;;;;;;19.33;17.38;;;;;;;30.04;15.80;95395.41;5014632;28;20053;-54
2021/10/28 08:48:40;;;;;;;21.05;18.08;;;;;;;29.95;15.70;95397.69;5014456;28;20061;-49
2021/10/28 08:56:37;;;;;;;22.45;19.25;;;;;;;30.31;15.30;95387.66;5013962;28;20065;-52
2021/10/28 09:24:45;;;;;;;22.30;19.80;;;;;;;31.02;15.37;95385.91;5012293;28;20056;-46
2021/10/28 09:27:20;;;;;;;22.88;20.45;;;;;;;30.83;15.09;95379.06;5013157;28;20054;-46
2021/10/28 09:30:16;;;;;;;23.48;20.98;;;;;;;30.93;15.40;95383.63;5011023;28;20479;-48
2021/10/28 09:32:47;;;;;;;23.77;21.15;;;;;;;31.08;15.72;95379.72;5003814;28;20057;-47
2021/10/28 09:46:50;;;;;;;23.23;19.77;;;;;;;31.37;15.43;95358.72;5005815;28;20046;-47
2021/10/28 09:52:11;;;;;;;21.63;19.25;;;;;;;31.62;14.84;95350.44;5005174;28;20053;-47
2021/10/28 10:00:10;;;;;;;21.83;18.77;;;;;;;31.46;15.12;95333.97;4998312;28;20326;-49
2021/10/28 10:05:28;;;;;;;21.65;17.63;;;;;;;31.60;14.64;95323.84;5014063;28;20061;-50
2021/10/28 10:07:59;;;;;;;22.90;18.42;;;;;;;31.51;15.13;95314.66;5017071;28;20046;-52
2021/10/28 10:10:30;;;;;;;21.70;18.02;;;;;;;32.20;14.91;95317.13;5012574;28;20052;-47
2021/10/28 10:12:58;;;;;;;20.80;18.20;;;;;;;32.29;14.53;95319.38;4995962;28;20050;-50
2021/10/28 10:15:26;;;;;;;20.55;18.45;;;;;;;31.97;15.26;95313.50;5015907;28;20049;-50
2021/10/28 10:17:59;;;;;;;18.88;16.63;;;;;;;31.76;14.81;95315.25;5017150;28;20065;-54
2021/10/28 10:20:35;;;;;;;17.77;16.08;;;;;;;32.20;14.75;95302.81;5016122;28;20041;-49
2021/10/28 12:54:45;;;;;;;3.63;3.15;;;;;;;32.26;10.92;95132.78;5033544;28;20391;-62
2021/10/28 13:50:43;;;;;;;8.05;4.00;;;;;;;33.94;9.64;95123.44;5033716;28;20053;-53
2021/10/28 13:58:40;;;;;;;5.07;3.40;;;;;;;33.79;9.78;95127.59;5033632;28;20041;-50
2021/10/28 15:28:22;;;;;;;8.02;4.90;;;;;;;33.11;10.68;95134.22;5035546;28;20494;-51
2021/10/28 15:39:02;;;;;;;10.43;6.30;;;;;;;33.65;10.62;95144.91;5035242;28;20053;-55
2021/10/28 15:41:52;;;;;;;8.50;7.32;;;;;;;33.80;10.72;95139.94;5025575;28;20041;-52
2021/10/28 16:22:04;;;;;;;36.20;28.98;;;;;;;31.32;12.13;95139.63;5022998;28;20081;-55
2021/10/28 16:24:34;;;;;;;33.95;29.55;;;;;;;31.13;12.52;95157.88;5034971;28;20053;-53
2021/10/28 16:27:02;;;;;;;38.92;30.00;;;;;;;30.90;12.72;95152.28;5028765;28;20376;-54
2021/10/28 16:29:31;;;;;;;36.13;30.50;;;;;;;30.98;12.42;95149.16;5034659;28;20057;-53
2021/10/28 16:31:58;;;;;;;48.75;37.03;;;;;;;30.80;12.44;95145.03;5033704;28;20045;-63
2021/10/28 16:34:29;;;;;;;37.97;31.55;;;;;;;30.19;12.40;95152.69;5029736;28;20046;-52
2021/10/28 16:36:58;;;;;;;36.55;26.65;;;;;;;29.99;12.53;95155.84;5031863;28;20052;-51
2021/10/28 16:39:26;;;;;;;30.98;26.02;;;;;;;29.84;12.55;95148.97;5014594;28;20049;-53
2021/10/28 16:41:56;;;;;;;26.25;21.48;;;;;;;29.57;12.70;95150.59;5014557;28;20361;-53
2021/10/28 16:44:23;;;;;;;19.52;15.52;;;;;;;29.64;12.76;95164.03;5033988;28;20041;-53
2021/10/28 16:46:51;;;;;;;13.00;11.25;;;;;;;29.41;12.71;95159.88;5032608;28;20057;-57
2021/10/28 16:49:20;;;;;;;12.65;10.40;;;;;;;29.40;12.67;95158.28;5034123;28;20065;-53
2021/10/28 16:51:48;;;;;;;10.98;8.32;;;;;;;29.15;12.97;95162.97;5030918;28;20060;-55
2021/10/28 16:54:18;;;;;;;10.27;7.78;;;;;;;28.78;13.20;95166.78;5033890;28;20053;-53
2021/10/28 16:56:48;;;;;;;8.80;7.07;;;;;;;29.05;13.26;95177.19;5033831;28;20049;-54
2021/10/28 16:59:15;;;;;;;10.25;7.45;;;;;;;26.68;15.19;95175.59;5029391;28;20064;-55
2021/10/28 17:01:43;;;;;;;10.40;6.90;;;;;;;27.55;14.72;95173.97;5014321;28;20053;-54
2021/10/28 17:04:10;;;;;;;8.45;5.95;;;;;;;27.94;14.21;95178.81;5031473;28;20048;-57
2021/10/28 17:06:37;;;;;;;7.53;6.20;;;;;;;29.10;14.42;95179.50;5033409;28;20060;-60
2021/10/28 17:09:08;;;;;;;8.23;6.53;;;;;;;31.82;13.45;95178.47;5014414;28;20053;-51
2021/10/28 17:11:36;;;;;;;7.28;6.00;;;;;;;31.32;12.74;95178.19;5014452;28;20492;-53
2021/10/28 17:14:05;;;;;;;8.00;6.53;;;;;;;32.70;12.32;95180.47;5015311;28;20050;-51
2021/10/28 17:16:33;;;;;;;6.47;5.53;;;;;;;31.67;12.25;95171.66;5028285;28;20045;-51
2021/10/28 17:19:00;;;;;;;7.05;6.10;;;;;;;31.29;12.58;95168.97;5034121;28;20050;-59
2021/10/28 17:21:27;;;;;;;9.90;5.97;;;;;;;31.53;12.42;95171.81;5033235;28;20061;-51
2021/10/28 17:24:06;;;;;;;8.48;5.88;;;;;;;31.45;12.62;95178.44;5033553;28;20356;-49
2021/10/28 17:26:34;;;;;;;8.27;6.35;;;;;;;31.73;12.25;95180.88;5033627;28;20448;-52
2021/10/28 17:29:02;;;;;;;7.03;6.18;;;;;;;31.35;12.99;95190.13;5033791;28;20050;-61
2021/10/28 17:31:32;;;;;;;10.20;6.70;;;;;;;31.44;12.76;95185.78;5033598;28;20057;-49
2021/10/28 17:34:01;;;;;;;11.55;8.30;;;;;;;31.60;12.51;95182.56;5033357;28;20056;-50
2021/10/28 17:36:28;;;;;;;12.80;10.00;;;;;;;31.64;12.42;95183.28;5033623;28;20702;-50
2021/10/28 17:38:55;;;;;;;14.43;10.60;;;;;;;31.11;12.91;95184.50;5033696;28;20049;-48
2021/10/28 17:41:24;;;;;;;14.95;10.75;;;;;;;31.46;12.79;95188.09;5033360;28;20060;-48
2021/10/28 17:43:54;;;;;;;18.10;12.20;;;;;;;31.40;12.64;95189.69;5033554;28;20052;-54
2021/10/28 17:46:24;;;;;;;16.77;13.23;;;;;;;31.43;12.78;95197.00;5033448;28;20057;-52
2021/10/28 17:48:51;;;;;;;19.25;13.15;;;;;;;31.39;12.66;95193.56;5023758;28;20054;-52
2021/10/28 17:51:19;;;;;;;17.33;13.90;;;;;;;31.23;12.85;95192.16;5016198;28;20049;-52
2021/10/28 17:53:47;;;;;;;15.68;13.80;;;;;;;31.05;13.05;95196.13;5033376;28;20056;-53
2021/10/28 17:56:16;;;;;;;18.70;15.20;;;;;;;30.93;13.13;95191.97;5033398;28;20752;-53
2021/10/28 17:58:43;;;;;;;17.55;13.57;;;;;;;30.74;13.17;95197.91;5035190;28;20364;-51
2021/10/28 18:01:11;;;;;;;16.00;12.75;;;;;;;31.04;12.98;95202.72;5037264;28;20053;-50
2021/10/28 18:03:38;;;;;;;12.20;10.70;;;;;;;30.84;13.33;95202.47;5037079;28;20060;-58
2021/10/28 18:06:06;;;;;;;14.88;11.80;;;;;;;30.98;12.98;95203.13;5037428;28;20048;-52
2021/10/28 18:08:34;;;;;;;12.40;10.15;;;;;;;31.09;13.05;95208.44;5035912;28;20049;-54
2021/10/28 18:11:01;;;;;;;14.00;10.82;;;;;;;30.68;13.36;95202.94;5037073;28;20069;-55
2021/10/28 18:13:29;;;;;;;12.88;10.40;;;;;;;31.58;12.89;95198.41;5036772;28;20056;-52
2021/10/28 18:15:56;;;;;;;15.23;11.15;;;;;;;30.91;13.58;95203.16;5036934;28;20072;-50
2021/10/28 18:18:23;;;;;;;16.85;11.90;;;;;;;30.80;13.59;95207.13;5036860;28;20049;-51
2021/10/28 18:20:50;;;;;;;18.05;13.60;;;;;;;30.67;13.84;95209.50;5036610;28;20056;-49
2021/10/28 18:23:17;;;;;;;15.57;13.25;;;;;;;30.43;14.11;95211.13;5036054;28;20061;-49
2021/10/28 18:25:44;;;;;;;16.75;13.40;;;;;;;30.41;14.14;95210.00;5025003;28;20041;-49
2021/10/28 18:28:11;;;;;;;15.50;12.77;;;;;;;30.50;14.05;95221.13;5016542;28;20065;-51
2021/10/28 18:30:39;;;;;;;20.98;14.13;;;;;;;30.26;14.30;95217.41;5035825;28;20056;-54
2021/10/28 18:33:06;;;;;;;19.98;16.38;;;;;;;30.04;14.50;95222.88;5036262;28;20460;-48
2021/10/28 18:35:33;;;;;;;22.52;18.10;;;;;;;30.28;14.33;95221.25;5036851;28;20041;-49
2021/10/28 18:38:00;;;;;;;23.55;18.25;;;;;;;30.29;14.20;95216.63;5036838;28;20057;-50
2021/10/28 18:40:28;;;;;;;24.88;20.00;;;;;;;29.84;14.53;95221.75;5036209;28;20053;-54
2021/10/28 18:42:55;;;;;;;24.92;19.58;;;;;;;29.68;14.69;95226.78;5030355;28;20045;-51
2021/10/28 18:45:22;;;;;;;30.13;22.20;;;;;;;29.91;15.04;95218.25;5036193;28;20482;-50
2021/10/28 18:47:51;;;;;;;175.73;154.13;;;;;;;29.84;15.53;95213.66;5036757;28;20090;-49
2021/10/28 18:50:19;;;;;;;95.95;80.38;;;;;;;29.54;15.59;95216.03;5036277;28;20057;-50
2021/10/28 18:52:46;;;;;;;47.88;39.00;;;;;;;28.99;16.20;95209.09;5035753;28;20045;-49
2021/10/28 18:55:13;;;;;;;35.63;29.67;;;;;;;28.94;16.14;95214.09;5036284;28;20057;-50
2021/10/28 18:57:40;;;;;;;37.47;30.80;;;;;;;28.86;16.13;95211.38;5024527;28;20061;-50
2021/10/28 19:00:08;;;;;;;35.15;27.50;;;;;;;28.93;16.15;95215.25;5030090;28;20053;-51
2021/10/28 19:02:36;;;;;;;32.75;26.48;;;;;;;28.90;16.23;95216.03;5035949;28;20053;-49
2021/10/28 19:05:05;;;;;;;33.47;26.88;;;;;;;28.57;16.19;95220.53;5036315;28;20053;-49
2021/10/28 19:07:32;;;;;;;30.08;25.33;;;;;;;29.10;15.88;95219.88;5036235;28;20041;-50
2021/10/28 19:10:00;;;;;;;24.15;19.80;;;;;;;29.31;15.63;95227.94;5034905;28;20041;-49
2021/10/28 19:12:27;;;;;;;84.55;75.38;;;;;;;29.02;16.35;95231.78;5035674;28;20045;-50
2021/10/28 19:14:54;;;;;;;36.55;32.58;;;;;;;29.08;17.26;95222.16;5027621;28;20049;-53
2021/10/28 19:17:22;;;;;;;31.60;26.67;;;;;;;29.50;16.59;95231.44;5016126;28;20066;-53
2021/10/28 19:19:49;;;;;;;26.88;24.05;;;;;;;29.79;16.49;95227.53;5017068;28;20049;-51
2021/10/28 19:22:16;;;;;;;29.75;25.08;;;;;;;30.03;16.34;95225.94;5030339;28;20072;-49
2021/10/28 19:24:44;;;;;;;29.33;24.48;;;;;;;30.08;15.59;95229.00;5035586;28;20045;-54
2021/10/28 19:27:12;;;;;;;85.38;61.63;;;;;;;30.32;15.74;95235.47;5033951;28;20061;-57
2021/10/28 19:29:44;;;;;;;471.98;388.10;;;;;;;31.02;15.78;95230.09;5036053;28;20360;-52
2021/10/28 19:32:18;;;;;;;252.02;224.35;;;;;;;31.79;15.29;95238.75;5035657;28;20053;-53
2021/10/28 19:34:45;;;;;;;62.20;51.42;;;;;;;31.85;13.35;95237.16;5027183;28;20334;-52
2021/10/28 19:39:53;;;;;;;47.25;36.42;;;;;;;29.45;16.40;95248.75;5015745;28;20046;-58
2021/10/28 19:45:11;;;;;;;38.15;29.63;;;;;;;31.01;15.86;95239.38;5016339;28;20042;-53
2021/10/28 19:47:40;;;;;;;33.92;29.17;;;;;;;30.96;15.81;95247.88;5049828;28;20359;-51
2021/10/28 19:50:11;;;;;;;36.92;28.60;;;;;;;31.19;15.47;95245.41;5022340;28;20853;-49
2021/10/28 19:52:40;;;;;;;32.22;26.45;;;;;;;30.68;15.64;95244.16;5032263;28;20470;-54
2021/10/28 19:55:08;;;;;;;41.30;32.92;;;;;;;30.13;16.23;95251.31;5030856;28;20060;-50
2021/10/28 19:57:38;;;;;;;43.78;36.22;;;;;;;29.59;16.81;95246.03;5015267;28;20052;-49
2021/10/28 20:13:19;;;;;;;33.03;27.58;;;;;;;29.27;16.56;95250.66;5034741;28;20329;-54
2021/10/28 20:21:18;;;;;;;32.25;28.42;;;;;;;29.10;16.98;95249.47;5032818;28;20093;-51
2021/10/28 20:23:45;;;;;;;28.05;22.75;;;;;;;29.95;16.08;95257.53;5030439;28;20052;-51
2021/10/28 20:26:12;;;;;;;27.10;24.20;;;;;;;30.45;16.29;95243.91;5026940;28;20049;-65
2021/10/28 20:28:40;;;;;;;28.50;25.40;;;;;;;30.10;16.19;95246.72;5015197;28;20049;-56
2021/10/28 20:31:08;;;;;;;25.58;22.65;;;;;;;30.38;16.15;95254.69;5017586;28;20049;-62
2021/10/28 20:33:49;;;;;;;24.67;22.08;;;;;;;30.25;15.58;95259.00;5033488;28;20049;-52
2021/10/28 20:38:53;;;;;;;18.95;16.80;;;;;;;28.52;16.71;95242.41;5015008;28;20052;-54
2021/10/28 20:41:21;;;;;;;18.83;16.25;;;;;;;28.33;16.35;95242.72;5034738;28;20057;-57
2021/10/28 20:43:48;;;;;;;19.63;15.85;;;;;;;28.71;15.83;95242.09;5026525;28;20068;-51
2021/10/28 20:46:25;;;;;;;20.63;16.35;;;;;;;28.38;16.52;95245.06;5033641;28;20045;-50
2021/10/28 20:48:55;;;;;;;20.83;16.42;;;;;;;28.32;16.31;95233.13;5034854;28;20045;-53
2021/10/28 20:51:23;;;;;;;32.03;28.30;;;;;;;28.20;16.40;95234.22;5033819;28;20065;-52
2021/10/28 20:53:50;;;;;;;116.97;104.50;;;;;;;28.43;16.41;95236.63;5033463;28;20045;-53
2021/10/28 20:56:21;;;;;;;33.00;29.33;;;;;;;28.10;16.68;95227.63;5034040;28;20049;-57